Pagrindinis puslapis
METAR-TAF:

METAR-TAF

Oro uostai :

Zagrebas, Kroatija

platuma: 45-44N, ilguma: 016-04E, Aukštis: 106 m

Dabartinis oras

Ataskaita buvo paskelbta 13 minutes, ne 19:30 UTC
Vėjas 5 kt iš Šiaurės Rytų
Temperatūra 12°C
Drėgmė 67%
Slėgis 1026 hPa
Matomumas 10 km arba daugiau
nėra debesų žemiau 1500 m ir nėra kamuolinių lietaus debesų

METAR: LDZA 191930Z 04005KT CAVOK 12/06 Q1026 NOSIG

Laikas: 21:43 (19:43 UTC)

Prognozė

Ataskaita buvo paskelbta 2 valandos ir 14 minutes, ne 17:29 UTC
Prognozė galioja nuo 19 metu 18 UTC su 20 metu 18 UTC
Vėjas 5 kt iš Šiaurės Rytų
Matomumas 10 km arba daugiau
nėra debesų žemiau 1500 m ir nėra kamuolinių lietaus debesų

TAF: LDZA 191729Z 1918/2018 05005KT CAVOK TX18/2012Z TN05/2005Z

Orai ataskaitas ir orų prognozės (METAR, TAF).

turimą stotys yra geltonos ir raudonos taškus žemėlapyje.

Perkelti pele per norėdami pamatyti stoties vardą.

Tada spustelėkite, norėdami matyti oro stebėjimo ir prognozės.

Norėdami pakeisti žemėlapį: spustelėkite ant žalios mygtukų su juodo kryžiaus žemyn,; žalią mygtuką su brūkšneliu, jei norite nutolinti; arba žalių rodyklių gretimoms žemėlapius.


METAR-TAF: